sensor_id;sensor_type;location;lat;lon;timestamp;temperature;humidity
3699;DHT22;1865;50.918;7.092;2023-04-06T00:01:02;6.30;43.30
3699;DHT22;1865;50.918;7.092;2023-04-06T00:03:28;6.30;43.10
3699;DHT22;1865;50.918;7.092;2023-04-06T00:05:53;6.20;43.00
3699;DHT22;1865;50.918;7.092;2023-04-06T00:08:19;6.20;42.60
3699;DHT22;1865;50.918;7.092;2023-04-06T00:10:46;6.20;42.90
3699;DHT22;1865;50.918;7.092;2023-04-06T00:13:12;6.20;43.10
3699;DHT22;1865;50.918;7.092;2023-04-06T00:15:37;6.20;43.00
3699;DHT22;1865;50.918;7.092;2023-04-06T00:18:03;6.00;43.20
3699;DHT22;1865;50.918;7.092;2023-04-06T00:20:28;6.00;43.80
3699;DHT22;1865;50.918;7.092;2023-04-06T00:22:54;6.00;43.80
3699;DHT22;1865;50.918;7.092;2023-04-06T00:25:20;6.00;43.70
3699;DHT22;1865;50.918;7.092;2023-04-06T00:27:45;6.00;43.90
3699;DHT22;1865;50.918;7.092;2023-04-06T00:30:11;6.10;43.70
3699;DHT22;1865;50.918;7.092;2023-04-06T00:32:37;6.20;43.90
3699;DHT22;1865;50.918;7.092;2023-04-06T00:35:03;6.20;43.90
3699;DHT22;1865;50.918;7.092;2023-04-06T00:37:29;6.20;43.70
3699;DHT22;1865;50.918;7.092;2023-04-06T00:39:54;6.20;43.30
3699;DHT22;1865;50.918;7.092;2023-04-06T00:42:21;6.20;43.80
3699;DHT22;1865;50.918;7.092;2023-04-06T00:44:56;6.30;43.30
3699;DHT22;1865;50.918;7.092;2023-04-06T00:47:23;6.20;43.20
3699;DHT22;1865;50.918;7.092;2023-04-06T00:49:50;6.20;43.40
3699;DHT22;1865;50.918;7.092;2023-04-06T00:52:16;6.00;43.50
3699;DHT22;1865;50.918;7.092;2023-04-06T00:54:42;6.00;43.80
3699;DHT22;1865;50.918;7.092;2023-04-06T00:57:08;6.10;43.60
3699;DHT22;1865;50.918;7.092;2023-04-06T00:59:34;6.00;43.90
3699;DHT22;1865;50.918;7.092;2023-04-06T01:01:59;5.90;44.30
3699;DHT22;1865;50.918;7.092;2023-04-06T01:04:25;5.90;43.80
3699;DHT22;1865;50.918;7.092;2023-04-06T01:06:51;5.90;44.20
3699;DHT22;1865;50.918;7.092;2023-04-06T01:09:17;5.90;44.40
3699;DHT22;1865;50.918;7.092;2023-04-06T01:11:43;5.80;44.30
3699;DHT22;1865;50.918;7.092;2023-04-06T01:14:09;5.80;44.40
3699;DHT22;1865;50.918;7.092;2023-04-06T01:16:34;5.80;44.90
3699;DHT22;1865;50.918;7.092;2023-04-06T01:19:00;5.90;44.70
3699;DHT22;1865;50.918;7.092;2023-04-06T01:21:26;5.90;43.90
3699;DHT22;1865;50.918;7.092;2023-04-06T01:23:52;5.90;44.40
3699;DHT22;1865;50.918;7.092;2023-04-06T01:26:18;5.90;44.60
3699;DHT22;1865;50.918;7.092;2023-04-06T01:28:43;6.00;43.70
3699;DHT22;1865;50.918;7.092;2023-04-06T01:31:10;5.70;44.30
3699;DHT22;1865;50.918;7.092;2023-04-06T01:33:35;5.70;45.60
3699;DHT22;1865;50.918;7.092;2023-04-06T01:36:02;5.60;44.90
3699;DHT22;1865;50.918;7.092;2023-04-06T01:38:28;5.50;45.20
3699;DHT22;1865;50.918;7.092;2023-04-06T01:40:53;5.50;45.90
3699;DHT22;1865;50.918;7.092;2023-04-06T01:43:19;5.50;46.10
3699;DHT22;1865;50.918;7.092;2023-04-06T01:45:45;5.60;46.40
3699;DHT22;1865;50.918;7.092;2023-04-06T01:48:11;5.70;46.00
3699;DHT22;1865;50.918;7.092;2023-04-06T01:50:36;5.80;45.50
3699;DHT22;1865;50.918;7.092;2023-04-06T01:53:02;5.90;45.30
3699;DHT22;1865;50.918;7.092;2023-04-06T01:55:27;5.90;44.60
3699;DHT22;1865;50.918;7.092;2023-04-06T01:57:53;5.70;44.60
3699;DHT22;1865;50.918;7.092;2023-04-06T02:00:18;5.60;45.20
3699;DHT22;1865;50.918;7.092;2023-04-06T02:02:44;5.70;46.10
3699;DHT22;1865;50.918;7.092;2023-04-06T02:05:10;5.60;45.30
3699;DHT22;1865;50.918;7.092;2023-04-06T02:07:36;5.60;46.10
3699;DHT22;1865;50.918;7.092;2023-04-06T02:10:02;5.70;46.20
3699;DHT22;1865;50.918;7.092;2023-04-06T02:12:28;5.70;45.50
3699;DHT22;1865;50.918;7.092;2023-04-06T02:14:53;5.80;45.30
3699;DHT22;1865;50.918;7.092;2023-04-06T02:17:19;5.70;45.30
3699;DHT22;1865;50.918;7.092;2023-04-06T02:19:44;5.70;45.50
3699;DHT22;1865;50.918;7.092;2023-04-06T02:22:10;5.70;45.60
3699;DHT22;1865;50.918;7.092;2023-04-06T02:24:36;5.70;45.40
3699;DHT22;1865;50.918;7.092;2023-04-06T02:27:02;5.60;45.20
3699;DHT22;1865;50.918;7.092;2023-04-06T02:29:27;5.60;45.50
3699;DHT22;1865;50.918;7.092;2023-04-06T02:31:53;5.60;45.30
3699;DHT22;1865;50.918;7.092;2023-04-06T02:34:18;5.50;45.60
3699;DHT22;1865;50.918;7.092;2023-04-06T02:36:45;5.50;45.80
3699;DHT22;1865;50.918;7.092;2023-04-06T02:39:11;5.50;46.30
3699;DHT22;1865;50.918;7.092;2023-04-06T02:41:37;5.50;46.00
3699;DHT22;1865;50.918;7.092;2023-04-06T02:44:02;5.50;45.80
3699;DHT22;1865;50.918;7.092;2023-04-06T02:46:28;5.50;46.30
3699;DHT22;1865;50.918;7.092;2023-04-06T02:48:54;5.50;45.90
3699;DHT22;1865;50.918;7.092;2023-04-06T02:51:20;5.40;46.00
3699;DHT22;1865;50.918;7.092;2023-04-06T02:53:46;5.40;46.40
3699;DHT22;1865;50.918;7.092;2023-04-06T02:56:11;5.40;46.30
3699;DHT22;1865;50.918;7.092;2023-04-06T02:58:37;5.40;46.60
3699;DHT22;1865;50.918;7.092;2023-04-06T03:01:03;5.40;46.00
3699;DHT22;1865;50.918;7.092;2023-04-06T03:03:28;5.30;46.00
3699;DHT22;1865;50.918;7.092;2023-04-06T03:05:54;5.20;46.40
3699;DHT22;1865;50.918;7.092;2023-04-06T03:08:21;5.20;46.90
3699;DHT22;1865;50.918;7.092;2023-04-06T03:10:47;5.20;46.90
3699;DHT22;1865;50.918;7.092;2023-04-06T03:13:12;5.20;46.60
3699;DHT22;1865;50.918;7.092;2023-04-06T03:15:38;5.10;46.60
3699;DHT22;1865;50.918;7.092;2023-04-06T03:18:03;5.00;46.90
3699;DHT22;1865;50.918;7.092;2023-04-06T03:20:29;5.10;46.90
3699;DHT22;1865;50.918;7.092;2023-04-06T03:22:54;5.10;46.90
3699;DHT22;1865;50.918;7.092;2023-04-06T03:25:20;5.20;46.60
3699;DHT22;1865;50.918;7.092;2023-04-06T03:27:46;5.20;46.40
3699;DHT22;1865;50.918;7.092;2023-04-06T03:30:12;5.20;46.70
3699;DHT22;1865;50.918;7.092;2023-04-06T03:32:37;5.20;46.50
3699;DHT22;1865;50.918;7.092;2023-04-06T03:35:03;5.20;46.50
3699;DHT22;1865;50.918;7.092;2023-04-06T03:37:29;5.30;46.30
3699;DHT22;1865;50.918;7.092;2023-04-06T03:39:54;5.30;45.90
3699;DHT22;1865;50.918;7.092;2023-04-06T03:42:20;5.20;46.40
3699;DHT22;1865;50.918;7.092;2023-04-06T03:44:45;5.10;46.40
3699;DHT22;1865;50.918;7.092;2023-04-06T03:47:11;5.00;47.30
3699;DHT22;1865;50.918;7.092;2023-04-06T03:49:36;5.10;47.00
3699;DHT22;1865;50.918;7.092;2023-04-06T03:52:02;5.00;47.10
3699;DHT22;1865;50.918;7.092;2023-04-06T03:54:27;5.00;47.20
3699;DHT22;1865;50.918;7.092;2023-04-06T03:56:53;4.90;47.40
3699;DHT22;1865;50.918;7.092;2023-04-06T03:59:18;4.90;48.00
3699;DHT22;1865;50.918;7.092;2023-04-06T04:01:44;4.90;47.80
3699;DHT22;1865;50.918;7.092;2023-04-06T04:04:10;5.00;47.70
3699;DHT22;1865;50.918;7.092;2023-04-06T04:06:35;5.10;47.20
3699;DHT22;1865;50.918;7.092;2023-04-06T04:09:01;5.10;47.10
3699;DHT22;1865;50.918;7.092;2023-04-06T04:11:27;5.10;46.80
3699;DHT22;1865;50.918;7.092;2023-04-06T04:13:53;5.20;46.60
3699;DHT22;1865;50.918;7.092;2023-04-06T04:16:18;5.20;46.50
3699;DHT22;1865;50.918;7.092;2023-04-06T04:18:44;5.10;46.50
3699;DHT22;1865;50.918;7.092;2023-04-06T04:21:12;5.00;46.60
3699;DHT22;1865;50.918;7.092;2023-04-06T04:23:38;5.10;47.20
3699;DHT22;1865;50.918;7.092;2023-04-06T04:26:03;5.00;46.70
3699;DHT22;1865;50.918;7.092;2023-04-06T04:28:29;5.10;47.00
3699;DHT22;1865;50.918;7.092;2023-04-06T04:30:54;5.10;46.70
3699;DHT22;1865;50.918;7.092;2023-04-06T04:33:20;5.00;46.60
3699;DHT22;1865;50.918;7.092;2023-04-06T04:35:46;5.00;46.50
3699;DHT22;1865;50.918;7.092;2023-04-06T04:38:11;5.00;46.60
3699;DHT22;1865;50.918;7.092;2023-04-06T04:40:37;5.00;47.00
3699;DHT22;1865;50.918;7.092;2023-04-06T04:43:02;4.90;47.20
3699;DHT22;1865;50.918;7.092;2023-04-06T04:45:28;4.90;46.60
3699;DHT22;1865;50.918;7.092;2023-04-06T04:47:53;4.90;46.90
3699;DHT22;1865;50.918;7.092;2023-04-06T04:50:19;5.00;47.10
3699;DHT22;1865;50.918;7.092;2023-04-06T04:52:44;5.00;46.70
3699;DHT22;1865;50.918;7.092;2023-04-06T04:55:10;4.90;46.70
3699;DHT22;1865;50.918;7.092;2023-04-06T04:57:35;4.90;46.90
3699;DHT22;1865;50.918;7.092;2023-04-06T05:00:01;4.90;46.80
3699;DHT22;1865;50.918;7.092;2023-04-06T05:02:27;4.80;46.80
3699;DHT22;1865;50.918;7.092;2023-04-06T05:04:53;4.70;48.00
3699;DHT22;1865;50.918;7.092;2023-04-06T05:07:18;4.80;48.00
3699;DHT22;1865;50.918;7.092;2023-04-06T05:09:45;4.80;47.80
3699;DHT22;1865;50.918;7.092;2023-04-06T05:12:11;4.90;47.60
3699;DHT22;1865;50.918;7.092;2023-04-06T05:14:36;4.80;47.00
3699;DHT22;1865;50.918;7.092;2023-04-06T05:17:02;4.90;47.80
3699;DHT22;1865;50.918;7.092;2023-04-06T05:19:27;4.90;47.20
3699;DHT22;1865;50.918;7.092;2023-04-06T05:21:53;4.90;47.20
3699;DHT22;1865;50.918;7.092;2023-04-06T05:24:19;4.90;47.60
3699;DHT22;1865;50.918;7.092;2023-04-06T05:26:44;5.10;47.00
3699;DHT22;1865;50.918;7.092;2023-04-06T05:29:10;5.10;47.10
3699;DHT22;1865;50.918;7.092;2023-04-06T05:31:36;5.10;47.30
3699;DHT22;1865;50.918;7.092;2023-04-06T05:34:01;5.20;47.20
3699;DHT22;1865;50.918;7.092;2023-04-06T05:36:27;5.20;46.90
3699;DHT22;1865;50.918;7.092;2023-04-06T05:38:53;5.30;46.60
3699;DHT22;1865;50.918;7.092;2023-04-06T05:41:18;5.40;44.80
3699;DHT22;1865;50.918;7.092;2023-04-06T05:43:44;5.50;44.20
3699;DHT22;1865;50.918;7.092;2023-04-06T05:46:10;5.70;43.50
3699;DHT22;1865;50.918;7.092;2023-04-06T05:48:36;5.80;43.10
3699;DHT22;1865;50.918;7.092;2023-04-06T05:51:01;6.00;42.00
3699;DHT22;1865;50.918;7.092;2023-04-06T05:53:31;6.10;41.10
3699;DHT22;1865;50.918;7.092;2023-04-06T05:55:57;6.20;40.60
3699;DHT22;1865;50.918;7.092;2023-04-06T05:58:22;6.40;40.20
3699;DHT22;1865;50.918;7.092;2023-04-06T06:00:48;6.50;39.70
3699;DHT22;1865;50.918;7.092;2023-04-06T06:03:13;6.70;39.80
3699;DHT22;1865;50.918;7.092;2023-04-06T06:05:40;6.70;39.70
3699;DHT22;1865;50.918;7.092;2023-04-06T06:08:06;6.90;39.10
3699;DHT22;1865;50.918;7.092;2023-04-06T06:10:31;6.90;39.50
3699;DHT22;1865;50.918;7.092;2023-04-06T06:12:57;6.90;38.80
3699;DHT22;1865;50.918;7.092;2023-04-06T06:15:22;7.00;39.20
3699;DHT22;1865;50.918;7.092;2023-04-06T06:17:48;7.10;39.10
3699;DHT22;1865;50.918;7.092;2023-04-06T06:20:13;7.20;38.20
3699;DHT22;1865;50.918;7.092;2023-04-06T06:22:39;7.20;37.70
3699;DHT22;1865;50.918;7.092;2023-04-06T06:25:05;7.30;37.50
3699;DHT22;1865;50.918;7.092;2023-04-06T06:27:31;7.40;37.20
3699;DHT22;1865;50.918;7.092;2023-04-06T06:29:56;7.40;36.60
3699;DHT22;1865;50.918;7.092;2023-04-06T06:32:22;7.60;36.60
3699;DHT22;1865;50.918;7.092;2023-04-06T06:34:47;7.80;36.40
3699;DHT22;1865;50.918;7.092;2023-04-06T06:37:13;7.90;37.20
3699;DHT22;1865;50.918;7.092;2023-04-06T06:39:39;8.10;36.30
3699;DHT22;1865;50.918;7.092;2023-04-06T06:42:05;8.00;35.60
3699;DHT22;1865;50.918;7.092;2023-04-06T06:44:30;8.10;35.50
3699;DHT22;1865;50.918;7.092;2023-04-06T06:46:56;8.20;35.20
3699;DHT22;1865;50.918;7.092;2023-04-06T06:49:21;8.30;34.80
3699;DHT22;1865;50.918;7.092;2023-04-06T06:51:47;8.30;34.30
3699;DHT22;1865;50.918;7.092;2023-04-06T06:54:12;8.40;34.30
3699;DHT22;1865;50.918;7.092;2023-04-06T06:56:38;8.50;34.20
3699;DHT22;1865;50.918;7.092;2023-04-06T06:59:05;8.70;34.30
3699;DHT22;1865;50.918;7.092;2023-04-06T07:01:33;8.80;34.30
3699;DHT22;1865;50.918;7.092;2023-04-06T07:03:59;9.10;34.00
3699;DHT22;1865;50.918;7.092;2023-04-06T07:06:25;9.30;33.60
3699;DHT22;1865;50.918;7.092;2023-04-06T07:08:50;9.20;33.00
3699;DHT22;1865;50.918;7.092;2023-04-06T07:11:16;9.40;33.60
3699;DHT22;1865;50.918;7.092;2023-04-06T07:13:42;9.50;32.90
3699;DHT22;1865;50.918;7.092;2023-04-06T07:16:08;9.60;32.80
3699;DHT22;1865;50.918;7.092;2023-04-06T07:18:33;9.70;32.40
3699;DHT22;1865;50.918;7.092;2023-04-06T07:20:59;9.90;32.80
3699;DHT22;1865;50.918;7.092;2023-04-06T07:23:25;10.00;32.80
3699;DHT22;1865;50.918;7.092;2023-04-06T07:25:50;10.30;32.40
3699;DHT22;1865;50.918;7.092;2023-04-06T07:28:17;10.40;31.80
3699;DHT22;1865;50.918;7.092;2023-04-06T07:30:43;10.60;31.80
3699;DHT22;1865;50.918;7.092;2023-04-06T07:33:08;10.50;31.30
3699;DHT22;1865;50.918;7.092;2023-04-06T07:35:34;10.60;31.90
3699;DHT22;1865;50.918;7.092;2023-04-06T07:38:01;10.90;31.20
3699;DHT22;1865;50.918;7.092;2023-04-06T07:40:27;11.10;31.00
3699;DHT22;1865;50.918;7.092;2023-04-06T07:42:53;11.40;30.50
3699;DHT22;1865;50.918;7.092;2023-04-06T07:45:18;11.70;30.20
3699;DHT22;1865;50.918;7.092;2023-04-06T07:47:44;11.70;29.80
3699;DHT22;1865;50.918;7.092;2023-04-06T07:50:10;12.00;29.80
3699;DHT22;1865;50.918;7.092;2023-04-06T07:52:36;12.20;29.80
3699;DHT22;1865;50.918;7.092;2023-04-06T07:55:02;12.50;29.40
3699;DHT22;1865;50.918;7.092;2023-04-06T07:57:27;13.10;29.60
3699;DHT22;1865;50.918;7.092;2023-04-06T07:59:53;14.20;27.50
3699;DHT22;1865;50.918;7.092;2023-04-06T08:02:18;14.90;26.20
3699;DHT22;1865;50.918;7.092;2023-04-06T08:04:44;15.00;25.20
3699;DHT22;1865;50.918;7.092;2023-04-06T08:07:10;15.10;25.20
3699;DHT22;1865;50.918;7.092;2023-04-06T08:09:36;15.30;23.90
3699;DHT22;1865;50.918;7.092;2023-04-06T08:12:01;15.50;25.50
3699;DHT22;1865;50.918;7.092;2023-04-06T08:14:27;15.60;23.40
3699;DHT22;1865;50.918;7.092;2023-04-06T08:16:52;15.30;24.40
3699;DHT22;1865;50.918;7.092;2023-04-06T08:19:18;15.40;24.30
3699;DHT22;1865;50.918;7.092;2023-04-06T08:21:44;15.40;24.50
3699;DHT22;1865;50.918;7.092;2023-04-06T08:24:11;15.30;24.00
3699;DHT22;1865;50.918;7.092;2023-04-06T08:26:37;15.20;25.00
3699;DHT22;1865;50.918;7.092;2023-04-06T08:29:02;15.00;24.30
3699;DHT22;1865;50.918;7.092;2023-04-06T08:31:29;14.80;25.00
3699;DHT22;1865;50.918;7.092;2023-04-06T08:33:55;14.60;24.90
3699;DHT22;1865;50.918;7.092;2023-04-06T08:36:21;14.70;25.30
3699;DHT22;1865;50.918;7.092;2023-04-06T08:38:48;14.90;25.10
3699;DHT22;1865;50.918;7.092;2023-04-06T08:41:15;14.90;25.50
3699;DHT22;1865;50.918;7.092;2023-04-06T08:43:59;15.00;24.90
3699;DHT22;1865;50.918;7.092;2023-04-06T08:46:26;15.00;24.80
3699;DHT22;1865;50.918;7.092;2023-04-06T08:48:59;15.50;25.40
3699;DHT22;1865;50.918;7.092;2023-04-06T08:51:26;16.00;23.50
3699;DHT22;1865;50.918;7.092;2023-04-06T08:53:53;16.60;24.00
3699;DHT22;1865;50.918;7.092;2023-04-06T08:56:21;17.70;23.10
3699;DHT22;1865;50.918;7.092;2023-04-06T08:58:47;18.30;21.80
3699;DHT22;1865;50.918;7.092;2023-04-06T09:01:14;18.70;20.80
3699;DHT22;1865;50.918;7.092;2023-04-06T09:03:43;19.00;20.80
3699;DHT22;1865;50.918;7.092;2023-04-06T09:06:09;19.20;20.00
3699;DHT22;1865;50.918;7.092;2023-04-06T09:08:38;18.80;20.80
3699;DHT22;1865;50.918;7.092;2023-04-06T09:11:04;18.70;20.50
3699;DHT22;1865;50.918;7.092;2023-04-06T09:13:30;18.00;21.30
3699;DHT22;1865;50.918;7.092;2023-04-06T09:16:04;17.70;22.20
3699;DHT22;1865;50.918;7.092;2023-04-06T09:18:33;17.00;22.60
3699;DHT22;1865;50.918;7.092;2023-04-06T09:21:00;17.00;23.60
3699;DHT22;1865;50.918;7.092;2023-04-06T09:23:26;17.00;23.20
3699;DHT22;1865;50.918;7.092;2023-04-06T09:25:52;16.90;24.40
3699;DHT22;1865;50.918;7.092;2023-04-06T09:28:17;17.00;24.00
3699;DHT22;1865;50.918;7.092;2023-04-06T09:30:49;17.10;23.60
3699;DHT22;1865;50.918;7.092;2023-04-06T09:33:22;17.10;23.60
3699;DHT22;1865;50.918;7.092;2023-04-06T09:35:51;17.20;24.30
3699;DHT22;1865;50.918;7.092;2023-04-06T09:38:16;16.90;24.30
3699;DHT22;1865;50.918;7.092;2023-04-06T09:40:51;17.20;24.80
3699;DHT22;1865;50.918;7.092;2023-04-06T09:43:25;17.50;24.10
3699;DHT22;1865;50.918;7.092;2023-04-06T09:45:51;17.50;23.50
3699;DHT22;1865;50.918;7.092;2023-04-06T09:48:19;17.50;23.50
3699;DHT22;1865;50.918;7.092;2023-04-06T09:50:45;17.30;24.40
3699;DHT22;1865;50.918;7.092;2023-04-06T09:53:11;17.30;24.80
3699;DHT22;1865;50.918;7.092;2023-04-06T09:55:42;17.40;24.80
3699;DHT22;1865;50.918;7.092;2023-04-06T09:58:13;17.70;24.10
3699;DHT22;1865;50.918;7.092;2023-04-06T10:00:47;17.80;23.70
3699;DHT22;1865;50.918;7.092;2023-04-06T10:03:21;17.90;24.60
3699;DHT22;1865;50.918;7.092;2023-04-06T10:05:53;17.80;23.50
3699;DHT22;1865;50.918;7.092;2023-04-06T10:08:24;17.70;24.70
3699;DHT22;1865;50.918;7.092;2023-04-06T10:10:51;17.90;24.60
3699;DHT22;1865;50.918;7.092;2023-04-06T10:13:18;17.90;24.40
3699;DHT22;1865;50.918;7.092;2023-04-06T10:15:44;17.90;24.20
3699;DHT22;1865;50.918;7.092;2023-04-06T10:18:10;18.00;24.00
3699;DHT22;1865;50.918;7.092;2023-04-06T10:20:43;18.20;23.80
3699;DHT22;1865;50.918;7.092;2023-04-06T10:23:19;18.40;23.20
3699;DHT22;1865;50.918;7.092;2023-04-06T10:25:57;18.50;23.50
3699;DHT22;1865;50.918;7.092;2023-04-06T10:28:24;18.40;23.00
3699;DHT22;1865;50.918;7.092;2023-04-06T10:31:00;18.20;23.70
3699;DHT22;1865;50.918;7.092;2023-04-06T10:33:26;18.00;23.50
3699;DHT22;1865;50.918;7.092;2023-04-06T10:35:52;18.20;23.30
3699;DHT22;1865;50.918;7.092;2023-04-06T10:38:19;18.60;23.00
3699;DHT22;1865;50.918;7.092;2023-04-06T10:40:49;18.90;23.50
3699;DHT22;1865;50.918;7.092;2023-04-06T10:43:19;19.00;22.10
3699;DHT22;1865;50.918;7.092;2023-04-06T10:45:54;18.90;22.20
3699;DHT22;1865;50.918;7.092;2023-04-06T10:48:20;18.80;22.40
3699;DHT22;1865;50.918;7.092;2023-04-06T10:50:51;18.80;22.90
3699;DHT22;1865;50.918;7.092;2023-04-06T10:53:24;19.00;22.80
3699;DHT22;1865;50.918;7.092;2023-04-06T10:55:51;19.10;22.70
3699;DHT22;1865;50.918;7.092;2023-04-06T10:58:17;19.20;21.50
3699;DHT22;1865;50.918;7.092;2023-04-06T11:00:46;19.10;22.20
3699;DHT22;1865;50.918;7.092;2023-04-06T11:03:12;19.30;22.20
3699;DHT22;1865;50.918;7.092;2023-04-06T11:05:38;19.20;22.50
3699;DHT22;1865;50.918;7.092;2023-04-06T11:08:03;19.00;22.20
3699;DHT22;1865;50.918;7.092;2023-04-06T11:10:29;18.90;22.50
3699;DHT22;1865;50.918;7.092;2023-04-06T11:12:56;19.10;22.70
3699;DHT22;1865;50.918;7.092;2023-04-06T11:15:22;19.20;22.50
3699;DHT22;1865;50.918;7.092;2023-04-06T11:17:48;19.20;22.50
3699;DHT22;1865;50.918;7.092;2023-04-06T11:20:15;19.10;22.70
3699;DHT22;1865;50.918;7.092;2023-04-06T11:22:51;19.00;22.10
3699;DHT22;1865;50.918;7.092;2023-04-06T11:25:16;19.00;22.20
3699;DHT22;1865;50.918;7.092;2023-04-06T11:27:43;18.80;22.30
3699;DHT22;1865;50.918;7.092;2023-04-06T11:30:09;18.70;22.20
3699;DHT22;1865;50.918;7.092;2023-04-06T11:32:42;18.70;22.80
3699;DHT22;1865;50.918;7.092;2023-04-06T11:35:20;18.70;22.90
3699;DHT22;1865;50.918;7.092;2023-04-06T11:37:46;18.90;22.20
3699;DHT22;1865;50.918;7.092;2023-04-06T11:40:11;18.50;21.80
3699;DHT22;1865;50.918;7.092;2023-04-06T11:42:37;18.40;22.30
3699;DHT22;1865;50.918;7.092;2023-04-06T11:45:03;18.50;22.60
3699;DHT22;1865;50.918;7.092;2023-04-06T11:49:55;18.60;22.30
3699;DHT22;1865;50.918;7.092;2023-04-06T11:52:26;18.60;21.90
3699;DHT22;1865;50.918;7.092;2023-04-06T11:54:53;18.70;22.10
3699;DHT22;1865;50.918;7.092;2023-04-06T11:57:21;18.70;22.60
3699;DHT22;1865;50.918;7.092;2023-04-06T11:59:49;18.90;21.30
3699;DHT22;1865;50.918;7.092;2023-04-06T12:02:15;19.00;21.20
3699;DHT22;1865;50.918;7.092;2023-04-06T12:04:40;19.20;21.80
3699;DHT22;1865;50.918;7.092;2023-04-06T12:07:06;19.40;21.70
3699;DHT22;1865;50.918;7.092;2023-04-06T12:09:32;19.00;21.80
3699;DHT22;1865;50.918;7.092;2023-04-06T12:11:57;18.80;22.60
3699;DHT22;1865;50.918;7.092;2023-04-06T12:14:23;18.90;22.50
3699;DHT22;1865;50.918;7.092;2023-04-06T12:16:49;19.00;22.90
3699;DHT22;1865;50.918;7.092;2023-04-06T12:19:14;19.00;22.70
3699;DHT22;1865;50.918;7.092;2023-04-06T12:21:40;19.00;22.60
3699;DHT22;1865;50.918;7.092;2023-04-06T12:24:06;19.00;22.60
3699;DHT22;1865;50.918;7.092;2023-04-06T12:26:32;18.80;22.00
3699;DHT22;1865;50.918;7.092;2023-04-06T12:28:58;18.60;22.10
3699;DHT22;1865;50.918;7.092;2023-04-06T12:31:37;18.50;22.80
3699;DHT22;1865;50.918;7.092;2023-04-06T12:34:04;18.50;22.70
3699;DHT22;1865;50.918;7.092;2023-04-06T12:36:30;18.30;23.00
3699;DHT22;1865;50.918;7.092;2023-04-06T12:38:56;18.30;22.90
3699;DHT22;1865;50.918;7.092;2023-04-06T12:41:21;18.30;23.10
3699;DHT22;1865;50.918;7.092;2023-04-06T12:43:48;18.50;22.50
3699;DHT22;1865;50.918;7.092;2023-04-06T12:46:14;18.40;22.60
3699;DHT22;1865;50.918;7.092;2023-04-06T12:48:40;18.40;23.00
3699;DHT22;1865;50.918;7.092;2023-04-06T12:51:06;18.40;22.90
3699;DHT22;1865;50.918;7.092;2023-04-06T12:53:33;18.50;22.40
3699;DHT22;1865;50.918;7.092;2023-04-06T12:55:59;18.60;23.10
3699;DHT22;1865;50.918;7.092;2023-04-06T12:58:25;18.70;22.70
3699;DHT22;1865;50.918;7.092;2023-04-06T13:00:57;18.70;22.10
3699;DHT22;1865;50.918;7.092;2023-04-06T13:03:22;18.70;22.70
3699;DHT22;1865;50.918;7.092;2023-04-06T13:05:49;18.60;22.10
3699;DHT22;1865;50.918;7.092;2023-04-06T13:08:17;18.70;22.60
3699;DHT22;1865;50.918;7.092;2023-04-06T13:10:52;18.50;22.40
3699;DHT22;1865;50.918;7.092;2023-04-06T13:13:25;18.40;22.80
3699;DHT22;1865;50.918;7.092;2023-04-06T13:15:52;18.30;22.80
3699;DHT22;1865;50.918;7.092;2023-04-06T13:18:17;18.40;23.10
3699;DHT22;1865;50.918;7.092;2023-04-06T13:20:43;18.30;23.70
3699;DHT22;1865;50.918;7.092;2023-04-06T13:23:09;18.10;23.50
3699;DHT22;1865;50.918;7.092;2023-04-06T13:25:34;18.10;23.70
3699;DHT22;1865;50.918;7.092;2023-04-06T13:28:00;18.10;24.80
3699;DHT22;1865;50.918;7.092;2023-04-06T13:30:26;18.00;25.00
3699;DHT22;1865;50.918;7.092;2023-04-06T13:32:51;17.80;25.20
3699;DHT22;1865;50.918;7.092;2023-04-06T13:35:17;17.50;26.00
3699;DHT22;1865;50.918;7.092;2023-04-06T13:37:43;17.60;25.50
3699;DHT22;1865;50.918;7.092;2023-04-06T13:40:09;17.60;25.70
3699;DHT22;1865;50.918;7.092;2023-04-06T13:42:35;17.70;25.70
3699;DHT22;1865;50.918;7.092;2023-04-06T13:45:01;17.70;25.60
3699;DHT22;1865;50.918;7.092;2023-04-06T13:47:27;17.50;25.60
3699;DHT22;1865;50.918;7.092;2023-04-06T13:49:53;17.50;25.90
3699;DHT22;1865;50.918;7.092;2023-04-06T13:52:19;17.40;25.70
3699;DHT22;1865;50.918;7.092;2023-04-06T13:54:45;17.30;26.60
3699;DHT22;1865;50.918;7.092;2023-04-06T13:57:11;17.20;25.90
3699;DHT22;1865;50.918;7.092;2023-04-06T13:59:38;17.00;25.50
3699;DHT22;1865;50.918;7.092;2023-04-06T14:02:05;16.80;26.90
3699;DHT22;1865;50.918;7.092;2023-04-06T14:04:31;16.50;28.30
3699;DHT22;1865;50.918;7.092;2023-04-06T14:06:58;16.30;28.70
3699;DHT22;1865;50.918;7.092;2023-04-06T14:09:23;16.30;29.30
3699;DHT22;1865;50.918;7.092;2023-04-06T14:11:50;16.30;29.60
3699;DHT22;1865;50.918;7.092;2023-04-06T14:14:16;16.20;29.30
3699;DHT22;1865;50.918;7.092;2023-04-06T14:16:42;16.10;30.10
3699;DHT22;1865;50.918;7.092;2023-04-06T14:19:12;15.90;31.20
3699;DHT22;1865;50.918;7.092;2023-04-06T14:21:38;15.80;31.70
3699;DHT22;1865;50.918;7.092;2023-04-06T14:24:06;15.80;32.00
3699;DHT22;1865;50.918;7.092;2023-04-06T14:26:31;15.90;32.90
3699;DHT22;1865;50.918;7.092;2023-04-06T14:28:59;15.90;31.80
3699;DHT22;1865;50.918;7.092;2023-04-06T14:31:25;15.80;32.10
3699;DHT22;1865;50.918;7.092;2023-04-06T14:33:51;15.80;33.00
3699;DHT22;1865;50.918;7.092;2023-04-06T14:36:17;15.80;32.30
3699;DHT22;1865;50.918;7.092;2023-04-06T14:38:43;15.80;32.80
3699;DHT22;1865;50.918;7.092;2023-04-06T14:41:23;15.80;33.00
3699;DHT22;1865;50.918;7.092;2023-04-06T14:43:49;15.90;33.70
3699;DHT22;1865;50.918;7.092;2023-04-06T14:46:15;15.90;34.10
3699;DHT22;1865;50.918;7.092;2023-04-06T14:48:43;15.90;34.60
3699;DHT22;1865;50.918;7.092;2023-04-06T14:51:09;15.70;34.00
3699;DHT22;1865;50.918;7.092;2023-04-06T14:53:35;15.70;34.60
3699;DHT22;1865;50.918;7.092;2023-04-06T14:56:00;15.80;34.70
3699;DHT22;1865;50.918;7.092;2023-04-06T14:58:26;15.80;34.60
3699;DHT22;1865;50.918;7.092;2023-04-06T15:00:59;15.60;34.70
3699;DHT22;1865;50.918;7.092;2023-04-06T15:03:25;15.60;35.20
3699;DHT22;1865;50.918;7.092;2023-04-06T15:05:55;15.70;35.60
3699;DHT22;1865;50.918;7.092;2023-04-06T15:08:22;15.70;36.00
3699;DHT22;1865;50.918;7.092;2023-04-06T15:10:49;15.60;37.00
3699;DHT22;1865;50.918;7.092;2023-04-06T15:13:15;15.50;37.80
3699;DHT22;1865;50.918;7.092;2023-04-06T15:15:41;15.40;38.30
3699;DHT22;1865;50.918;7.092;2023-04-06T15:18:07;15.40;38.20
3699;DHT22;1865;50.918;7.092;2023-04-06T15:20:33;15.40;39.20
3699;DHT22;1865;50.918;7.092;2023-04-06T15:23:01;15.20;39.50
3699;DHT22;1865;50.918;7.092;2023-04-06T15:25:27;15.20;40.60
3699;DHT22;1865;50.918;7.092;2023-04-06T15:27:54;15.20;40.50
3699;DHT22;1865;50.918;7.092;2023-04-06T15:30:19;15.10;41.20
3699;DHT22;1865;50.918;7.092;2023-04-06T15:32:56;14.90;41.80
3699;DHT22;1865;50.918;7.092;2023-04-06T15:35:22;14.90;42.10
3699;DHT22;1865;50.918;7.092;2023-04-06T15:37:48;14.90;42.00
3699;DHT22;1865;50.918;7.092;2023-04-06T15:40:14;14.70;43.00
3699;DHT22;1865;50.918;7.092;2023-04-06T15:42:41;14.70;43.60
3699;DHT22;1865;50.918;7.092;2023-04-06T15:45:09;14.60;44.70
3699;DHT22;1865;50.918;7.092;2023-04-06T15:47:36;14.60;45.50
3699;DHT22;1865;50.918;7.092;2023-04-06T15:50:02;14.60;46.10
3699;DHT22;1865;50.918;7.092;2023-04-06T15:52:27;14.60;45.20
3699;DHT22;1865;50.918;7.092;2023-04-06T15:54:53;14.50;45.20
3699;DHT22;1865;50.918;7.092;2023-04-06T15:57:18;14.30;46.40
3699;DHT22;1865;50.918;7.092;2023-04-06T15:59:44;14.30;46.30
3699;DHT22;1865;50.918;7.092;2023-04-06T16:02:10;14.30;46.80
3699;DHT22;1865;50.918;7.092;2023-04-06T16:04:35;14.20;47.10
3699;DHT22;1865;50.918;7.092;2023-04-06T16:07:01;14.20;47.70